Time;durP1;ratioP1;P1;durP2;ratioP2;P2;SDS_P1;SDS_P2;PMS_P1;PMS_P2;Temp;Humidity;BMP_temperature;BMP_pressure;BME280_temperature;BME280_humidity;BME280_pressure;Samples;Min_cycle;Max_cycle;Signal;HPM_P1;HPM_P2
2023/10/08 00:00:53;;;;;;;1.63;1.50;;;;;;;;;;10527286;28;20605;-84
2023/10/08 00:05:54;;;;;;;1.38;1.13;;;;;;;;;;10515040;28;20040;-81
2023/10/08 00:10:56;;;;;;;2.15;0.85;;;;;;;;;;10521780;28;20032;-84
2023/10/08 00:15:57;;;;;;;1.63;0.65;;;;;;;;;;10526607;28;20036;-80
2023/10/08 00:21:15;;;;;;;0.73;0.63;;;;;;;;;;10526628;28;20035;-81
2023/10/08 00:26:20;;;;;;;0.85;0.68;;;;;;;;;;10505425;28;20495;-80
2023/10/08 00:31:25;;;;;;;1.10;0.60;;;;;;;;;;10526596;28;20032;-83
2023/10/08 00:36:26;;;;;;;0.90;0.60;;;;;;;;;;10525575;28;20031;-84
2023/10/08 00:41:33;;;;;;;2.13;0.60;;;;;;;;;;10500508;28;20039;-82
2023/10/08 00:46:42;;;;;;;0.65;0.40;;;;;;;;;;10525793;28;20064;-82
2023/10/08 00:51:45;;;;;;;0.52;0.52;;;;;;;;;;10525876;28;20024;-82
2023/10/08 00:56:53;;;;;;;1.10;0.70;;;;;;;;;;10524914;28;20028;-82
2023/10/08 01:01:59;;;;;;;1.73;0.98;;;;;;;;;;10525900;28;20043;-81
2023/10/08 01:07:01;;;;;;;1.25;0.95;;;;;;;;;;10526153;28;20036;-84
2023/10/08 01:12:27;;;;;;;1.73;1.35;;;;;;;;;;10512745;28;20036;-84
2023/10/08 01:17:32;;;;;;;1.75;1.15;;;;;;;;;;10507847;28;20471;-82
2023/10/08 01:22:33;;;;;;;1.00;0.90;;;;;;;;;;10507101;28;20031;-84
2023/10/08 01:27:34;;;;;;;1.10;0.70;;;;;;;;;;10523636;28;20048;-81
2023/10/08 01:32:36;;;;;;;1.33;1.02;;;;;;;;;;10527001;28;20024;-83
2023/10/08 01:37:40;;;;;;;1.65;0.80;;;;;;;;;;10533218;28;20028;-82
2023/10/08 01:42:41;;;;;;;1.42;1.00;;;;;;;;;;10527550;28;20064;-82
2023/10/08 01:47:43;;;;;;;1.88;0.93;;;;;;;;;;10532349;28;20032;-82
2023/10/08 01:52:46;;;;;;;1.52;0.95;;;;;;;;;;10532157;22;20726;-87
2023/10/08 01:57:47;;;;;;;1.58;0.95;;;;;;;;;;10489275;28;20040;-82
2023/10/08 02:02:50;;;;;;;1.73;0.90;;;;;;;;;;10490438;28;20020;-82
2023/10/08 02:07:51;;;;;;;1.40;0.65;;;;;;;;;;10482591;28;20475;-84
2023/10/08 02:12:52;;;;;;;1.92;0.88;;;;;;;;;;10489071;28;20024;-82
2023/10/08 02:17:54;;;;;;;1.52;0.80;;;;;;;;;;10470990;28;20502;-83
2023/10/08 02:22:55;;;;;;;2.50;0.70;;;;;;;;;;10480536;28;20064;-82
2023/10/08 02:27:57;;;;;;;0.93;0.73;;;;;;;;;;10482219;28;20548;-82
2023/10/08 02:32:58;;;;;;;2.35;0.80;;;;;;;;;;10488232;28;20033;-82
2023/10/08 02:37:59;;;;;;;1.17;0.80;;;;;;;;;;10489540;28;20036;-82
2023/10/08 02:43:00;;;;;;;1.58;0.77;;;;;;;;;;10477650;28;20033;-82
2023/10/08 02:48:01;;;;;;;0.90;0.55;;;;;;;;;;10468493;28;20051;-83
2023/10/08 02:53:10;;;;;;;0.90;0.65;;;;;;;;;;10457359;28;20149;-82
2023/10/08 02:58:13;;;;;;;2.25;0.50;;;;;;;;;;10479581;28;20047;-82
2023/10/08 03:03:24;;;;;;;0.68;0.55;;;;;;;;;;10487199;28;20028;-82
2023/10/08 03:08:30;;;;;;;0.90;0.35;;;;;;;;;;10481310;28;20120;-82
2023/10/08 03:13:31;;;;;;;0.55;0.50;;;;;;;;;;10484497;28;20024;-81
2023/10/08 03:18:36;;;;;;;1.08;0.50;;;;;;;;;;10486689;28;20920;-84
2023/10/08 03:23:43;;;;;;;1.00;0.57;;;;;;;;;;10472948;28;20052;-81
2023/10/08 03:28:57;;;;;;;3.83;0.82;;;;;;;;;;10497724;22;20052;-85
2023/10/08 03:33:58;;;;;;;2.90;0.88;;;;;;;;;;10486243;28;20036;-82
2023/10/08 03:39:09;;;;;;;4.03;0.88;;;;;;;;;;10478534;28;20044;-82
2023/10/08 03:44:13;;;;;;;1.20;0.70;;;;;;;;;;10482483;28;20024;-82
2023/10/08 03:54:35;;;;;;;2.97;0.90;;;;;;;;;;10473660;28;20480;-83
2023/10/08 03:59:40;;;;;;;2.47;1.03;;;;;;;;;;10485589;28;20020;-83
2023/10/08 04:05:44;;;;;;;4.50;1.13;;;;;;;;;;10484928;28;20044;-83
2023/10/08 04:15:41;;;;;;;5.78;1.15;;;;;;;;;;10473452;28;20123;-82
2023/10/08 04:21:04;;;;;;;4.87;1.20;;;;;;;;;;10484256;28;20482;-82
2023/10/08 04:26:06;;;;;;;4.33;1.53;;;;;;;;;;10476628;28;20099;-82
2023/10/08 04:31:16;;;;;;;4.40;2.00;;;;;;;;;;10466589;28;20055;-83
2023/10/08 04:36:20;;;;;;;6.77;1.40;;;;;;;;;;10483260;28;20041;-84
2023/10/08 04:41:27;;;;;;;3.40;1.40;;;;;;;;;;10483744;28;20476;-82
2023/10/08 04:46:46;;;;;;;6.10;1.73;;;;;;;;;;10484600;28;20675;-82
2023/10/08 04:51:48;;;;;;;7.57;1.90;;;;;;;;;;10466260;28;20098;-83
2023/10/08 04:56:49;;;;;;;6.00;1.63;;;;;;;;;;10479442;28;20847;-83
2023/10/08 05:17:45;;;;;;;5.07;1.87;;;;;;;;;;10486633;28;20033;-85
2023/10/08 05:22:55;;;;;;;4.57;1.70;;;;;;;;;;10481207;28;20407;-83
2023/10/08 05:27:56;;;;;;;5.37;2.10;;;;;;;;;;10489283;28;20496;-84
2023/10/08 05:33:13;;;;;;;4.00;1.70;;;;;;;;;;10490612;28;20122;-83
2023/10/08 05:48:46;;;;;;;7.00;2.63;;;;;;;;;;10487649;28;20058;-83
2023/10/08 05:53:49;;;;;;;8.93;3.10;;;;;;;;;;10481007;28;20064;-82
2023/10/08 05:59:13;;;;;;;6.47;3.17;;;;;;;;;;10489607;28;20490;-84
2023/10/08 06:04:31;;;;;;;8.52;3.65;;;;;;;;;;10488925;28;20119;-83
2023/10/08 06:09:50;;;;;;;7.73;2.97;;;;;;;;;;10487944;28;20044;-83
2023/10/08 06:15:12;;;;;;;7.93;2.60;;;;;;;;;;10466604;28;20028;-85
2023/10/08 06:20:16;;;;;;;8.43;2.47;;;;;;;;;;10476567;28;20481;-82
2023/10/08 06:25:18;;;;;;;5.63;2.40;;;;;;;;;;10487081;28;20475;-86
2023/10/08 06:30:19;;;;;;;6.78;2.00;;;;;;;;;;10486180;28;20064;-82
2023/10/08 06:35:25;;;;;;;6.77;2.17;;;;;;;;;;10484607;28;20024;-86
2023/10/08 06:40:59;;;;;;;6.90;1.87;;;;;;;;;;10486336;28;20031;-83
2023/10/08 06:45:57;;;;;;;6.37;2.17;;;;;;;;;;10485226;28;20045;-85
2023/10/08 06:51:07;;;;;;;6.70;2.40;;;;;;;;;;10481120;28;20029;-82
2023/10/08 06:56:12;;;;;;;10.10;2.33;;;;;;;;;;10462113;28;20051;-82
2023/10/08 07:01:13;;;;;;;5.93;2.47;;;;;;;;;;10487265;28;20488;-85
2023/10/08 07:06:25;;;;;;;7.00;2.88;;;;;;;;;;10485067;28;20040;-83
2023/10/08 07:11:27;;;;;;;9.32;3.10;;;;;;;;;;10487299;22;20459;-82
2023/10/08 07:16:28;;;;;;;6.35;3.25;;;;;;;;;;10475904;28;20051;-81
2023/10/08 07:21:29;;;;;;;6.78;3.65;;;;;;;;;;10486264;28;20107;-83
2023/10/08 07:26:36;;;;;;;12.00;4.65;;;;;;;;;;10482037;28;20031;-82
2023/10/08 07:31:41;;;;;;;10.02;3.83;;;;;;;;;;10470061;28;20024;-81
2023/10/08 07:36:43;;;;;;;9.73;3.73;;;;;;;;;;10478143;28;20033;-79
2023/10/08 07:41:44;;;;;;;6.93;3.65;;;;;;;;;;10476381;28;20483;-79
2023/10/08 07:46:45;;;;;;;7.90;3.13;;;;;;;;;;10470672;28;20055;-82
2023/10/08 07:51:52;;;;;;;6.72;3.40;;;;;;;;;;10482395;28;20029;-82
2023/10/08 07:57:08;;;;;;;6.60;3.50;;;;;;;;;;10485165;28;20043;-84
2023/10/08 08:02:11;;;;;;;8.77;4.00;;;;;;;;;;10475703;28;20502;-82
2023/10/08 08:07:15;;;;;;;6.93;3.53;;;;;;;;;;10477587;28;20189;-83
2023/10/08 08:12:21;;;;;;;11.80;3.80;;;;;;;;;;10475569;28;20064;-84
2023/10/08 08:17:22;;;;;;;7.63;3.83;;;;;;;;;;10474611;28;20123;-83
2023/10/08 08:22:31;;;;;;;9.52;3.63;;;;;;;;;;10445660;28;20040;-86
2023/10/08 08:27:32;;;;;;;7.57;3.88;;;;;;;;;;10440000;28;20101;-81
2023/10/08 08:32:33;;;;;;;7.03;3.97;;;;;;;;;;10483656;28;20157;-84
2023/10/08 08:37:35;;;;;;;8.23;3.60;;;;;;;;;;10484624;28;20434;-83
2023/10/08 08:42:37;;;;;;;6.00;3.42;;;;;;;;;;10488735;28;20016;-82
2023/10/08 08:47:40;;;;;;;4.65;3.08;;;;;;;;;;10492742;28;20103;-83
2023/10/08 08:52:42;;;;;;;4.07;2.75;;;;;;;;;;10493197;28;20139;-83
2023/10/08 08:57:43;;;;;;;7.85;3.17;;;;;;;;;;10493396;28;20060;-83
2023/10/08 09:02:47;;;;;;;7.07;3.60;;;;;;;;;;10492993;28;20480;-83
2023/10/08 09:08:05;;;;;;;6.78;3.88;;;;;;;;;;10474991;28;20048;-83
2023/10/08 09:13:09;;;;;;;4.13;2.50;;;;;;;;;;10390066;28;20037;-88
2023/10/08 09:18:10;;;;;;;4.72;2.65;;;;;;;;;;10409359;28;20029;-81
2023/10/08 09:23:12;;;;;;;4.85;2.50;;;;;;;;;;10409372;28;20026;-82
2023/10/08 09:28:13;;;;;;;2.92;2.15;;;;;;;;;;10388664;28;20041;-83
2023/10/08 09:33:16;;;;;;;4.32;2.22;;;;;;;;;;10394509;28;20596;-82
2023/10/08 09:38:23;;;;;;;4.80;2.58;;;;;;;;;;10404696;28;20032;-83
2023/10/08 09:43:25;;;;;;;4.63;2.17;;;;;;;;;;10383503;28;20021;-83
2023/10/08 09:48:30;;;;;;;2.58;1.65;;;;;;;;;;10408328;28;20038;-82
2023/10/08 09:53:40;;;;;;;3.00;1.40;;;;;;;;;;10405156;28;20947;-85
2023/10/08 09:58:42;;;;;;;4.97;1.65;;;;;;;;;;10398801;28;20502;-84
2023/10/08 10:03:44;;;;;;;5.30;1.55;;;;;;;;;;10408183;28;20033;-83
2023/10/08 10:08:46;;;;;;;2.53;1.50;;;;;;;;;;10418269;28;20105;-82
2023/10/08 10:13:52;;;;;;;2.88;1.42;;;;;;;;;;10490017;28;20017;-87
2023/10/08 10:18:57;;;;;;;4.50;1.50;;;;;;;;;;10490185;28;20032;-84
2023/10/08 10:23:58;;;;;;;2.03;1.00;;;;;;;;;;10489540;28;20082;-83
2023/10/08 10:29:10;;;;;;;3.35;1.50;;;;;;;;;;10489335;28;20044;-84
2023/10/08 10:34:19;;;;;;;1.60;0.95;;;;;;;;;;10470642;28;20111;-83
2023/10/08 10:39:27;;;;;;;2.10;1.20;;;;;;;;;;10489108;28;20044;-81
2023/10/08 10:44:38;;;;;;;1.65;1.20;;;;;;;;;;10480645;28;20488;-83
2023/10/08 10:49:49;;;;;;;2.70;1.10;;;;;;;;;;10484440;28;20043;-83
2023/10/08 10:55:00;;;;;;;2.13;1.00;;;;;;;;;;10488231;28;20028;-85
2023/10/08 11:00:46;;;;;;;2.22;1.33;;;;;;;;;;10488168;28;20388;-83
2023/10/08 11:05:37;;;;;;;3.00;1.17;;;;;;;;;;10486508;28;20093;-85
2023/10/08 11:10:39;;;;;;;1.83;1.40;;;;;;;;;;10468224;28;20048;-80
2023/10/08 11:15:41;;;;;;;1.52;0.90;;;;;;;;;;10469142;28;20470;-85
2023/10/08 11:20:45;;;;;;;1.75;1.05;;;;;;;;;;10469006;28;20028;-83
2023/10/08 11:26:03;;;;;;;4.15;1.10;;;;;;;;;;10473364;28;20029;-85
2023/10/08 11:31:08;;;;;;;2.42;1.00;;;;;;;;;;10473386;28;20178;-83
2023/10/08 11:36:19;;;;;;;2.63;1.23;;;;;;;;;;10486794;28;20056;-84
2023/10/08 11:41:20;;;;;;;1.75;0.77;;;;;;;;;;10468555;28;20101;-83
2023/10/08 11:46:25;;;;;;;2.53;0.90;;;;;;;;;;10486330;28;20020;-81
2023/10/08 11:51:27;;;;;;;3.70;1.37;;;;;;;;;;10485807;28;20012;-83
2023/10/08 11:56:33;;;;;;;1.23;0.93;;;;;;;;;;10486322;28;20024;-84
2023/10/08 12:01:35;;;;;;;1.60;0.80;;;;;;;;;;10486062;28;20120;-83
2023/10/08 12:06:37;;;;;;;2.92;0.95;;;;;;;;;;10485685;28;20046;-84
2023/10/08 12:11:39;;;;;;;3.63;1.00;;;;;;;;;;10483765;28;20091;-85
2023/10/08 12:16:41;;;;;;;1.52;0.68;;;;;;;;;;10485298;28;20028;-82
2023/10/08 12:21:46;;;;;;;1.45;0.80;;;;;;;;;;10485236;28;20048;-83
2023/10/08 12:26:47;;;;;;;1.30;0.70;;;;;;;;;;10466854;28;20474;-83
2023/10/08 12:31:55;;;;;;;1.83;0.90;;;;;;;;;;10485604;28;20047;-83
2023/10/08 12:36:56;;;;;;;2.83;1.52;;;;;;;;;;10484520;28;20024;-83
2023/10/08 12:42:04;;;;;;;3.55;0.98;;;;;;;;;;10484486;28;20029;-84
2023/10/08 12:47:05;;;;;;;2.22;1.00;;;;;;;;;;10484947;28;20079;-83
2023/10/08 12:52:08;;;;;;;3.63;1.10;;;;;;;;;;10484785;28;20167;-83
2023/10/08 12:57:09;;;;;;;2.08;0.80;;;;;;;;;;10466123;28;20036;-83
2023/10/08 13:02:10;;;;;;;1.95;0.80;;;;;;;;;;10484373;28;20029;-86
2023/10/08 13:07:12;;;;;;;1.75;0.88;;;;;;;;;;10485491;28;20472;-84
2023/10/08 13:12:20;;;;;;;2.60;0.80;;;;;;;;;;10483772;28;20064;-82
2023/10/08 13:17:22;;;;;;;2.33;0.90;;;;;;;;;;10484201;28;20115;-85
2023/10/08 13:22:24;;;;;;;2.75;0.93;;;;;;;;;;10483819;28;20480;-83
2023/10/08 13:27:25;;;;;;;1.45;0.70;;;;;;;;;;10483685;28;20068;-82
2023/10/08 13:32:26;;;;;;;1.88;0.80;;;;;;;;;;10492037;28;20038;-82
2023/10/08 13:37:27;;;;;;;1.63;0.90;;;;;;;;;;10491357;28;20488;-84
2023/10/08 13:42:29;;;;;;;2.22;1.25;;;;;;;;;;10491669;28;20028;-82
2023/10/08 13:47:33;;;;;;;2.08;1.02;;;;;;;;;;10472692;28;20090;-86
2023/10/08 13:52:38;;;;;;;2.40;1.30;;;;;;;;;;10490844;28;20025;-83
2023/10/08 13:57:42;;;;;;;2.22;1.10;;;;;;;;;;10473374;28;20043;-84
2023/10/08 14:02:44;;;;;;;4.63;1.20;;;;;;;;;;10490696;28;20039;-85
2023/10/08 14:07:45;;;;;;;1.98;1.33;;;;;;;;;;10459875;28;20028;-81
2023/10/08 14:12:53;;;;;;;1.20;0.82;;;;;;;;;;10471444;28;20048;-82
2023/10/08 14:17:58;;;;;;;3.65;1.00;;;;;;;;;;10465976;28;20029;-83
2023/10/08 14:23:02;;;;;;;3.83;1.00;;;;;;;;;;10488051;28;20055;-82
2023/10/08 14:28:08;;;;;;;3.75;0.93;;;;;;;;;;10488488;28;20044;-82
2023/10/08 14:33:13;;;;;;;1.75;1.05;;;;;;;;;;10471552;28;20131;-88
2023/10/08 14:43:34;;;;;;;2.42;0.90;;;;;;;;;;10489223;28;20040;-82
2023/10/08 14:48:35;;;;;;;1.70;0.73;;;;;;;;;;10488981;28;20555;-82
2023/10/08 14:53:38;;;;;;;2.17;0.80;;;;;;;;;;10488397;28;20023;-82
2023/10/08 14:58:41;;;;;;;2.25;0.80;;;;;;;;;;10488080;28;20052;-84
2023/10/08 15:03:42;;;;;;;2.45;1.05;;;;;;;;;;10488768;28;20415;-84
2023/10/08 15:08:43;;;;;;;3.03;1.20;;;;;;;;;;10486979;28;20081;-82
2023/10/08 15:13:46;;;;;;;3.72;1.30;;;;;;;;;;10488084;28;20082;-82
2023/10/08 15:18:47;;;;;;;2.38;1.17;;;;;;;;;;10487885;28;20025;-86
2023/10/08 15:23:48;;;;;;;3.08;1.20;;;;;;;;;;10486879;28;20519;-82
2023/10/08 15:28:49;;;;;;;3.47;1.10;;;;;;;;;;10486695;28;20063;-82
2023/10/08 15:33:51;;;;;;;3.65;1.10;;;;;;;;;;10474006;28;20032;-82
2023/10/08 15:38:52;;;;;;;2.97;1.10;;;;;;;;;;10486893;28;20110;-82
2023/10/08 15:43:58;;;;;;;3.13;1.50;;;;;;;;;;10486414;28;20023;-82
2023/10/08 15:49:00;;;;;;;3.97;1.35;;;;;;;;;;10486565;28;20033;-82
2023/10/08 15:54:01;;;;;;;3.37;1.60;;;;;;;;;;10456192;28;20039;-82
2023/10/08 15:59:02;;;;;;;4.37;1.57;;;;;;;;;;10464184;28;20785;-83
2023/10/08 16:04:04;;;;;;;2.97;1.60;;;;;;;;;;10473285;28;20029;-85
2023/10/08 16:09:05;;;;;;;4.57;2.13;;;;;;;;;;10465379;28;20057;-86
2023/10/08 16:14:06;;;;;;;2.57;1.50;;;;;;;;;;10483991;28;20029;-82
2023/10/08 16:19:08;;;;;;;3.73;2.00;;;;;;;;;;10466716;28;20121;-82
2023/10/08 16:24:09;;;;;;;7.07;1.93;;;;;;;;;;10483748;28;20140;-82
2023/10/08 16:29:16;;;;;;;5.40;2.40;;;;;;;;;;10472719;28;20036;-83
2023/10/08 16:34:26;;;;;;;8.27;2.63;;;;;;;;;;10485908;28;20040;-83
2023/10/08 16:39:27;;;;;;;6.87;3.20;;;;;;;;;;10485474;28;20111;-83
2023/10/08 16:44:28;;;;;;;6.93;3.00;;;;;;;;;;10466673;28;20531;-86
2023/10/08 16:49:30;;;;;;;11.63;4.72;;;;;;;;;;10484245;28;20041;-82
2023/10/08 16:54:31;;;;;;;7.15;3.83;;;;;;;;;;10482736;28;20521;-84
2023/10/08 16:59:32;;;;;;;6.40;3.38;;;;;;;;;;10482440;28;20031;-83
2023/10/08 17:04:33;;;;;;;7.28;3.35;;;;;;;;;;10484009;28;20070;-87
2023/10/08 17:09:35;;;;;;;8.82;4.00;;;;;;;;;;10472970;28;20056;-83
2023/10/08 17:14:37;;;;;;;8.15;3.88;;;;;;;;;;10492272;28;20029;-83
2023/10/08 17:19:38;;;;;;;8.85;3.90;;;;;;;;;;10474141;28;20186;-85
2023/10/08 17:24:41;;;;;;;12.25;5.45;;;;;;;;;;10483785;28;20025;-85
2023/10/08 17:29:42;;;;;;;11.75;5.57;;;;;;;;;;10473937;28;20036;-83
2023/10/08 17:34:43;;;;;;;17.33;7.40;;;;;;;;;;10484776;28;20020;-83
2023/10/08 17:39:45;;;;;;;19.07;8.07;;;;;;;;;;10492265;28;20020;-82
2023/10/08 17:44:46;;;;;;;10.15;4.57;;;;;;;;;;10490896;28;20032;-84
2023/10/08 17:49:55;;;;;;;11.93;5.38;;;;;;;;;;10472891;28;20670;-84
2023/10/08 17:54:58;;;;;;;11.13;5.40;;;;;;;;;;10490642;28;20034;-83
2023/10/08 18:00:00;;;;;;;17.00;7.10;;;;;;;;;;10472915;28;20057;-84
2023/10/08 18:05:04;;;;;;;12.30;6.07;;;;;;;;;;10490032;28;20143;-85
2023/10/08 18:10:05;;;;;;;12.67;6.40;;;;;;;;;;10470767;28;20492;-83
2023/10/08 18:15:18;;;;;;;16.13;8.37;;;;;;;;;;10489499;28;20023;-83
2023/10/08 18:20:19;;;;;;;18.53;9.33;;;;;;;;;;10487890;28;20036;-84
2023/10/08 18:25:23;;;;;;;18.23;8.23;;;;;;;;;;10487086;28;20033;-83
2023/10/08 18:30:27;;;;;;;19.07;7.97;;;;;;;;;;10453937;28;20048;-83
2023/10/08 18:35:30;;;;;;;20.90;9.43;;;;;;;;;;10488978;28;20449;-83
2023/10/08 18:40:37;;;;;;;15.60;7.57;;;;;;;;;;10489824;28;20039;-84
2023/10/08 18:45:42;;;;;;;15.35;7.63;;;;;;;;;;10488872;28;20028;-83
2023/10/08 18:50:44;;;;;;;16.63;7.47;;;;;;;;;;10488520;28;20472;-84
2023/10/08 18:55:45;;;;;;;15.80;6.53;;;;;;;;;;10489486;28;20101;-84
2023/10/08 19:00:47;;;;;;;11.97;5.83;;;;;;;;;;10461943;28;20123;-83
2023/10/08 19:05:48;;;;;;;13.40;6.30;;;;;;;;;;10481643;28;20511;-85
2023/10/08 19:10:49;;;;;;;13.97;6.67;;;;;;;;;;10483985;28;20056;-85
2023/10/08 19:15:52;;;;;;;17.77;7.70;;;;;;;;;;10469583;28;20086;-85
2023/10/08 19:20:53;;;;;;;15.13;6.57;;;;;;;;;;10486831;28;20049;-86
2023/10/08 19:25:55;;;;;;;20.00;9.73;;;;;;;;;;10468301;28;20174;-84
2023/10/08 19:30:58;;;;;;;17.73;8.17;;;;;;;;;;10472968;28;20028;-85
2023/10/08 19:36:02;;;;;;;19.47;8.47;;;;;;;;;;10474002;28;20106;-84
2023/10/08 19:41:03;;;;;;;16.83;8.00;;;;;;;;;;10486842;28;20099;-84
2023/10/08 19:46:10;;;;;;;20.63;8.47;;;;;;;;;;10485104;28;20048;-85
2023/10/08 19:51:12;;;;;;;23.20;8.70;;;;;;;;;;10477206;28;20055;-84
2023/10/08 19:56:14;;;;;;;17.90;8.57;;;;;;;;;;10467611;28;20104;-84
2023/10/08 20:01:15;;;;;;;15.23;6.63;;;;;;;;;;10485138;28;20039;-84
2023/10/08 20:06:16;;;;;;;15.43;6.57;;;;;;;;;;10485579;28;20028;-84
2023/10/08 20:11:17;;;;;;;18.53;8.07;;;;;;;;;;10483829;28;20048;-84
2023/10/08 20:16:19;;;;;;;16.03;7.37;;;;;;;;;;10484646;28;20664;-84
2023/10/08 20:21:21;;;;;;;14.70;8.27;;;;;;;;;;10466409;28;20037;-83
2023/10/08 20:26:22;;;;;;;13.23;6.73;;;;;;;;;;10484255;28;20089;-85
2023/10/08 20:31:24;;;;;;;15.20;6.97;;;;;;;;;;10465458;28;20040;-83
2023/10/08 20:36:25;;;;;;;18.70;9.17;;;;;;;;;;10484155;28;20480;-84
2023/10/08 20:41:27;;;;;;;22.23;10.73;;;;;;;;;;10466025;28;20029;-84
2023/10/08 20:46:28;;;;;;;19.83;8.37;;;;;;;;;;10482055;28;20036;-85
2023/10/08 20:51:29;;;;;;;15.83;7.30;;;;;;;;;;10465306;28;20037;-83
2023/10/08 20:56:30;;;;;;;25.50;12.03;;;;;;;;;;10484071;28;20480;-85
2023/10/08 21:01:33;;;;;;;28.13;14.10;;;;;;;;;;10482886;28;20025;-84
2023/10/08 21:06:35;;;;;;;18.03;8.33;;;;;;;;;;10483920;28;20064;-87
2023/10/08 21:11:36;;;;;;;59.33;30.80;;;;;;;;;;10482438;28;20080;-84
2023/10/08 21:16:37;;;;;;;82.73;44.40;;;;;;;;;;10465834;28;20071;-85
2023/10/08 21:21:38;;;;;;;45.80;23.70;;;;;;;;;;10465110;28;20235;-85
2023/10/08 21:26:39;;;;;;;31.80;15.80;;;;;;;;;;10465475;28;20051;-86
2023/10/08 21:31:42;;;;;;;25.70;14.07;;;;;;;;;;10464702;28;20036;-84
2023/10/08 21:36:43;;;;;;;26.53;14.40;;;;;;;;;;10482921;28;20024;-84
2023/10/08 21:41:44;;;;;;;26.40;13.30;;;;;;;;;;10481058;28;20025;-88
2023/10/08 21:46:45;;;;;;;21.77;10.97;;;;;;;;;;10482903;28;20020;-84
2023/10/08 21:51:46;;;;;;;21.30;10.77;;;;;;;;;;10467293;28;20024;-87
2023/10/08 21:56:47;;;;;;;23.97;11.63;;;;;;;;;;10471943;28;20027;-87
2023/10/08 22:01:50;;;;;;;38.77;14.57;;;;;;;;;;10489298;28;20027;-83
2023/10/08 22:06:52;;;;;;;42.60;18.83;;;;;;;;;;10471079;28;20123;-84
2023/10/08 22:11:53;;;;;;;45.20;20.33;;;;;;;;;;10487934;28;20061;-84
2023/10/08 22:16:54;;;;;;;38.63;16.70;;;;;;;;;;10489334;28;20094;-84
2023/10/08 22:21:58;;;;;;;30.37;13.97;;;;;;;;;;10471364;28;20028;-84
2023/10/08 22:27:06;;;;;;;33.30;13.73;;;;;;;;;;10470632;28;20606;-84
2023/10/08 22:32:08;;;;;;;32.90;16.17;;;;;;;;;;10488478;28;20035;-83
2023/10/08 22:37:19;;;;;;;30.30;13.50;;;;;;;;;;10487621;28;20456;-83
2023/10/08 22:42:20;;;;;;;23.47;10.67;;;;;;;;;;10488182;28;21400;-85
2023/10/08 22:47:31;;;;;;;24.27;11.53;;;;;;;;;;10468991;28;20031;-84
2023/10/08 22:52:32;;;;;;;23.97;10.60;;;;;;;;;;10487873;28;20037;-83
2023/10/08 22:57:34;;;;;;;23.53;9.97;;;;;;;;;;10470229;28;20064;-84
2023/10/08 23:02:38;;;;;;;21.37;10.60;;;;;;;;;;10487196;28;20024;-83
2023/10/08 23:07:41;;;;;;;23.57;10.30;;;;;;;;;;10487775;28;20052;-86
2023/10/08 23:12:42;;;;;;;22.97;10.77;;;;;;;;;;10486251;28;20045;-84
2023/10/08 23:17:43;;;;;;;23.07;10.77;;;;;;;;;;10469410;28;20105;-87
2023/10/08 23:22:44;;;;;;;26.27;11.87;;;;;;;;;;10479871;28;20077;-84
2023/10/08 23:27:45;;;;;;;22.03;9.80;;;;;;;;;;10486696;28;20044;-83
2023/10/08 23:32:46;;;;;;;27.50;10.87;;;;;;;;;;10485590;28;20032;-83
2023/10/08 23:37:53;;;;;;;19.67;9.73;;;;;;;;;;10484914;28;20043;-87
2023/10/08 23:42:54;;;;;;;17.50;8.60;;;;;;;;;;10486696;28;20064;-85
2023/10/08 23:53:34;;;;;;;20.07;9.07;;;;;;;;;;10483878;28;20036;-88
2023/10/08 23:58:36;;;;;;;17.90;8.03;;;;;;;;;;10486194;28;20037;-88
